Time;durP1;ratioP1;P1;durP2;ratioP2;P2;SDS_P1;SDS_P2;PMS_P1;PMS_P2;Temp;Humidity;BMP_temperature;BMP_pressure;BME280_temperature;BME280_humidity;BME280_pressure;Samples;Min_cycle;Max_cycle;Signal;HPM_P1;HPM_P2
2022/02/25 00:01:40;;;;;;;3.10;3.00;;;1.90;99.90;;;;;;6340289;28;20294;-77
2022/02/25 00:04:47;;;;;;;3.03;2.93;;;1.90;99.90;;;;;;6322254;28;20292;-77
2022/02/25 00:07:53;;;;;;;3.33;3.23;;;1.90;99.90;;;;;;6340595;28;20281;-77
2022/02/25 00:10:58;;;;;;;2.70;2.60;;;1.90;99.90;;;;;;6339932;28;20301;-77
2022/02/25 00:14:04;;;;;;;3.23;3.03;;;1.90;99.90;;;;;;6339417;28;20300;-77
2022/02/25 00:17:14;;;;;;;3.30;3.20;;;1.80;99.90;;;;;;6340802;28;20278;-77
2022/02/25 00:20:21;;;;;;;3.77;3.33;;;1.80;99.90;;;;;;6339240;28;20443;-77
2022/02/25 00:23:26;;;;;;;3.60;3.40;;;1.90;99.90;;;;;;6339523;28;20456;-77
2022/02/25 00:26:31;;;;;;;4.07;3.63;;;1.90;99.90;;;;;;6340089;28;20294;-77
2022/02/25 00:29:37;;;;;;;3.80;3.60;;;1.80;99.90;;;;;;6339835;28;20292;-77
2022/02/25 00:32:42;;;;;;;3.27;3.17;;;1.80;99.90;;;;;;6339249;28;20557;-77
2022/02/25 00:35:50;;;;;;;3.60;3.30;;;1.70;99.90;;;;;;6338767;28;20572;-77
2022/02/25 00:38:56;;;;;;;3.00;2.90;;;1.80;99.90;;;;;;6338596;28;20272;-77
2022/02/25 00:42:04;;;;;;;3.57;3.47;;;1.80;99.90;;;;;;6339845;28;20276;-77
2022/02/25 00:45:10;;;;;;;3.10;3.00;;;1.80;99.90;;;;;;6339267;28;20380;-77
2022/02/25 00:48:18;;;;;;;3.20;3.00;;;1.80;99.90;;;;;;6339179;28;20468;-77
2022/02/25 00:51:24;;;;;;;2.87;2.77;;;1.80;99.90;;;;;;6338668;28;20317;-77
2022/02/25 00:54:31;;;;;;;2.53;2.47;;;1.70;99.90;;;;;;6338318;28;20296;-77
2022/02/25 00:57:36;;;;;;;3.17;3.07;;;1.70;99.90;;;;;;6339528;28;20277;-76
2022/02/25 01:00:42;;;;;;;2.80;2.80;;;1.80;99.90;;;;;;6338151;28;20301;-77
2022/02/25 01:03:48;;;;;;;3.50;3.30;;;1.80;99.90;;;;;;6337933;28;20467;-77
2022/02/25 01:06:55;;;;;;;3.00;2.80;;;1.80;99.90;;;;;;6338929;28;20266;-77
2022/02/25 01:10:01;;;;;;;3.97;3.70;;;1.80;99.90;;;;;;6337227;28;20295;-77
2022/02/25 01:13:06;;;;;;;4.70;4.40;;;1.80;99.90;;;;;;6338540;28;20276;-76
2022/02/25 01:16:13;;;;;;;3.93;3.63;;;1.70;99.90;;;;;;6338573;28;20303;-77
2022/02/25 01:19:19;;;;;;;3.33;3.23;;;1.80;99.90;;;;;;6338513;28;20297;-76
2022/02/25 01:22:25;;;;;;;3.37;3.27;;;1.80;99.90;;;;;;6338625;28;20277;-77
2022/02/25 01:25:31;;;;;;;3.10;2.90;;;1.80;99.90;;;;;;6337398;28;20308;-76
2022/02/25 01:28:36;;;;;;;3.20;3.10;;;1.80;99.90;;;;;;6339566;28;20273;-76
2022/02/25 01:31:44;;;;;;;3.00;2.90;;;1.80;99.90;;;;;;6336363;28;20264;-76
2022/02/25 01:34:50;;;;;;;3.00;2.90;;;1.70;99.90;;;;;;6337799;28;20305;-76
2022/02/25 01:37:57;;;;;;;2.73;2.63;;;1.80;99.90;;;;;;6339266;28;20269;-76
2022/02/25 01:41:02;;;;;;;2.63;2.53;;;1.80;99.90;;;;;;6337928;28;20301;-77
2022/02/25 01:44:17;;;;;;;2.90;2.80;;;1.80;99.90;;;;;;6338003;28;20297;-77
2022/02/25 01:47:23;;;;;;;2.60;2.53;;;1.80;99.90;;;;;;6338002;28;20269;-77
2022/02/25 01:50:30;;;;;;;2.60;2.40;;;1.80;99.90;;;;;;6338183;28;20318;-77
2022/02/25 01:53:37;;;;;;;2.43;2.37;;;1.80;99.90;;;;;;6337935;28;20325;-76
2022/02/25 01:56:43;;;;;;;2.80;2.70;;;1.80;99.90;;;;;;6337579;28;20290;-77
2022/02/25 01:59:48;;;;;;;2.20;2.20;;;1.80;99.90;;;;;;6337606;28;20298;-77
2022/02/25 02:02:55;;;;;;;2.60;2.50;;;1.90;99.90;;;;;;6338356;28;20272;-77
2022/02/25 02:06:00;;;;;;;2.70;2.60;;;1.90;99.90;;;;;;6320539;28;20449;-76
2022/02/25 02:09:08;;;;;;;3.10;2.90;;;1.80;99.90;;;;;;6337653;28;20303;-77
2022/02/25 02:12:13;;;;;;;2.57;2.47;;;1.80;99.90;;;;;;6338061;28;20261;-77
2022/02/25 02:15:21;;;;;;;2.90;2.80;;;1.80;99.90;;;;;;6337110;28;20301;-77
2022/02/25 02:18:26;;;;;;;3.13;2.80;;;1.80;99.90;;;;;;6337193;28;20269;-77
2022/02/25 02:21:32;;;;;;;2.83;2.73;;;1.80;99.90;;;;;;6336205;28;20308;-77
2022/02/25 02:24:39;;;;;;;3.10;2.90;;;1.80;99.90;;;;;;6337186;28;20293;-76
2022/02/25 02:31:07;;;;;;;3.40;2.30;;;1.70;99.90;;;;;;6337225;28;20303;-76
2022/02/25 02:34:18;;;;;;;2.37;2.37;;;1.70;99.90;;;;;;6336735;28;20565;-77
2022/02/25 02:37:24;;;;;;;2.20;2.10;;;1.70;99.90;;;;;;6340188;28;20292;-77
2022/02/25 02:40:31;;;;;;;1.83;1.83;;;1.70;99.90;;;;;;6342291;28;20297;-77
2022/02/25 02:43:39;;;;;;;1.83;1.83;;;1.70;99.90;;;;;;6342067;28;20577;-76
2022/02/25 02:46:44;;;;;;;2.33;2.30;;;1.70;99.90;;;;;;6341185;28;20283;-76
2022/02/25 02:49:50;;;;;;;2.17;2.07;;;1.60;99.90;;;;;;6342563;28;20291;-77
2022/02/25 02:52:56;;;;;;;2.10;2.00;;;1.60;99.90;;;;;;6342207;28;20274;-76
2022/02/25 02:56:03;;;;;;;2.60;2.07;;;1.60;99.90;;;;;;6324088;28;20304;-77
2022/02/25 02:59:08;;;;;;;2.10;2.00;;;1.60;99.90;;;;;;6341264;28;20289;-78
2022/02/25 03:02:16;;;;;;;1.93;1.93;;;1.60;99.90;;;;;;6342282;28;20274;-77
2022/02/25 03:05:23;;;;;;;1.90;1.87;;;1.60;99.90;;;;;;6341511;28;20300;-77
2022/02/25 03:08:28;;;;;;;2.73;2.03;;;1.70;99.90;;;;;;6324036;28;20270;-77
2022/02/25 03:11:35;;;;;;;1.73;1.67;;;1.70;99.90;;;;;;6341049;28;20287;-76
2022/02/25 03:14:40;;;;;;;2.60;1.60;;;1.60;99.90;;;;;;6341785;28;20300;-77
2022/02/25 03:17:48;;;;;;;1.70;1.60;;;1.70;99.90;;;;;;6341726;28;20295;-77
2022/02/25 03:20:54;;;;;;;1.63;1.53;;;1.70;99.90;;;;;;6341833;28;20305;-77
2022/02/25 03:23:59;;;;;;;1.20;1.10;;;1.70;99.90;;;;;;6341660;28;20482;-77
2022/02/25 03:27:06;;;;;;;1.37;1.10;;;1.70;99.90;;;;;;6342164;28;20275;-76
2022/02/25 03:30:13;;;;;;;1.23;1.23;;;1.70;99.90;;;;;;6340686;28;20302;-77
2022/02/25 03:33:19;;;;;;;1.23;1.23;;;1.70;99.90;;;;;;6340839;28;20274;-77
2022/02/25 03:36:24;;;;;;;1.30;1.30;;;1.60;99.90;;;;;;6341328;28;20437;-77
2022/02/25 03:39:29;;;;;;;1.40;1.40;;;1.60;99.90;;;;;;6341163;28;20302;-77
2022/02/25 03:42:36;;;;;;;1.50;1.50;;;1.70;99.90;;;;;;6341466;28;20267;-77
2022/02/25 03:45:42;;;;;;;1.43;1.40;;;1.70;99.90;;;;;;6341047;28;20294;-77
2022/02/25 03:48:47;;;;;;;1.50;1.40;;;1.70;99.90;;;;;;6339996;28;20267;-77
2022/02/25 03:51:53;;;;;;;1.30;1.30;;;1.60;99.90;;;;;;6341120;28;20274;-77
2022/02/25 03:54:58;;;;;;;1.30;1.30;;;1.60;99.90;;;;;;6340292;28;20313;-76
2022/02/25 03:58:05;;;;;;;1.40;1.40;;;1.60;99.90;;;;;;6340540;28;20293;-76
2022/02/25 04:01:11;;;;;;;3.20;1.50;;;1.70;99.90;;;;;;6340181;28;20297;-77
2022/02/25 04:04:17;;;;;;;1.53;1.53;;;1.70;99.90;;;;;;6337310;28;20295;-77
2022/02/25 04:07:22;;;;;;;1.60;1.60;;;1.70;99.90;;;;;;6339333;28;20476;-77
2022/02/25 04:10:27;;;;;;;1.73;1.60;;;1.80;99.90;;;;;;6340474;28;20261;-77
2022/02/25 04:13:34;;;;;;;1.67;1.67;;;1.70;99.90;;;;;;6340446;28;20290;-76
2022/02/25 04:16:39;;;;;;;1.60;1.60;;;1.70;99.90;;;;;;6340426;28;20466;-76
2022/02/25 04:19:45;;;;;;;1.80;1.80;;;1.70;99.90;;;;;;6339287;28;20301;-76
2022/02/25 04:22:50;;;;;;;1.80;1.80;;;1.70;99.90;;;;;;6339215;28;20577;-76
2022/02/25 04:25:55;;;;;;;1.40;1.40;;;1.70;99.90;;;;;;6339998;28;20270;-76
2022/02/25 04:29:03;;;;;;;1.53;1.40;;;1.80;99.90;;;;;;6339162;28;20295;-76
2022/02/25 04:32:10;;;;;;;1.60;1.60;;;1.80;99.90;;;;;;6339852;28;20262;-76
2022/02/25 04:35:16;;;;;;;2.23;2.13;;;1.80;99.90;;;;;;6339494;28;20546;-76
2022/02/25 04:38:23;;;;;;;1.90;1.90;;;1.80;99.90;;;;;;6338736;28;20305;-76
2022/02/25 04:41:28;;;;;;;1.90;1.80;;;1.80;99.90;;;;;;6339954;28;20272;-76
2022/02/25 04:44:35;;;;;;;2.13;1.90;;;1.80;99.90;;;;;;6339046;28;20299;-76
2022/02/25 04:47:41;;;;;;;1.77;1.77;;;1.80;99.90;;;;;;6339077;28;20476;-76
2022/02/25 04:50:46;;;;;;;2.13;1.93;;;1.80;99.90;;;;;;6339326;28;20277;-76
2022/02/25 04:53:52;;;;;;;2.20;2.10;;;1.80;99.90;;;;;;6338341;28;20306;-76
2022/02/25 04:56:57;;;;;;;3.80;2.20;;;1.90;99.90;;;;;;6338171;28;20289;-76
2022/02/25 05:00:06;;;;;;;3.43;2.03;;;1.90;99.90;;;;;;6338676;28;20567;-76
2022/02/25 05:03:17;;;;;;;2.73;2.60;;;1.90;99.90;;;;;;6338856;28;20287;-76
2022/02/25 05:06:23;;;;;;;3.40;2.60;;;1.80;99.90;;;;;;6339231;28;20270;-76
2022/02/25 05:09:29;;;;;;;4.67;2.90;;;1.70;99.90;;;;;;6337965;28;20300;-77
2022/02/25 05:12:34;;;;;;;3.07;2.70;;;1.80;99.90;;;;;;6337932;28;20441;-76
2022/02/25 05:22:26;;;;;;;4.07;3.17;;;1.80;99.90;;;;;;6337044;28;20289;-76
2022/02/25 05:25:33;;;;;;;4.60;3.30;;;1.80;99.90;;;;;;6338701;28;20266;-76
2022/02/25 05:28:47;;;;;;;8.47;3.90;;;1.80;99.90;;;;;;6337598;28;20609;-76
2022/02/25 05:31:53;;;;;;;9.30;3.57;;;1.80;99.90;;;;;;6338094;28;20277;-76
2022/02/25 05:34:59;;;;;;;8.63;3.83;;;1.80;99.90;;;;;;6337456;28;20273;-76
2022/02/25 05:38:05;;;;;;;4.00;3.60;;;1.80;99.90;;;;;;6337429;28;20557;-76
2022/02/25 05:41:11;;;;;;;5.43;3.63;;;1.80;99.90;;;;;;6337834;28;20266;-76
2022/02/25 05:44:16;;;;;;;5.03;3.30;;;1.70;99.90;;;;;;6337591;28;20309;-76
2022/02/25 05:47:23;;;;;;;9.30;3.80;;;1.80;99.90;;;;;;6336896;28;20297;-76
2022/02/25 05:50:30;;;;;;;7.40;3.77;;;1.80;99.90;;;;;;6338383;28;20272;-76
2022/02/25 05:53:35;;;;;;;7.47;3.63;;;1.70;99.90;;;;;;6337392;28;20374;-76
2022/02/25 05:56:40;;;;;;;4.10;3.73;;;1.80;99.90;;;;;;6336956;28;20270;-76
2022/02/25 05:59:46;;;;;;;6.83;3.70;;;1.80;99.90;;;;;;6337233;28;20300;-77
2022/02/25 06:02:53;;;;;;;7.97;4.07;;;1.80;99.90;;;;;;6335963;28;20298;-77
2022/02/25 06:05:58;;;;;;;8.13;3.90;;;1.80;99.90;;;;;;6336945;28;20273;-76
2022/02/25 06:09:04;;;;;;;6.23;4.30;;;1.80;99.90;;;;;;6336366;28;20299;-77
2022/02/25 06:12:10;;;;;;;7.20;4.00;;;1.80;99.90;;;;;;6336125;28;20279;-77
2022/02/25 06:15:15;;;;;;;7.53;3.77;;;1.80;99.90;;;;;;6336801;28;20271;-77
2022/02/25 06:18:22;;;;;;;7.13;4.20;;;1.90;99.90;;;;;;6318700;28;20294;-77
2022/02/25 06:21:28;;;;;;;8.10;3.60;;;1.90;99.90;;;;;;6337163;28;20482;-77
2022/02/25 06:24:35;;;;;;;7.10;3.83;;;1.90;99.90;;;;;;6336739;28;20226;-77
2022/02/25 06:27:40;;;;;;;6.27;3.50;;;1.90;99.90;;;;;;6337376;28;20303;-76
2022/02/25 06:30:45;;;;;;;3.97;3.43;;;1.90;99.90;;;;;;6336935;28;20266;-77
2022/02/25 06:33:52;;;;;;;3.83;3.10;;;1.90;99.90;;;;;;6336424;28;20294;-77
2022/02/25 06:36:58;;;;;;;6.23;3.40;;;1.90;99.90;;;;;;6336103;28;20273;-77
2022/02/25 06:40:04;;;;;;;5.60;2.90;;;1.90;99.90;;;;;;6336627;28;20359;-77
2022/02/25 06:43:14;;;;;;;7.93;2.67;;;1.90;99.90;;;;;;6335164;28;20592;-76
2022/02/25 06:46:20;;;;;;;6.20;2.73;;;1.90;99.90;;;;;;6337157;28;20549;-76
2022/02/25 06:49:26;;;;;;;9.07;3.10;;;1.80;99.90;;;;;;6336662;28;20305;-76
2022/02/25 06:52:32;;;;;;;3.00;2.47;;;1.80;99.90;;;;;;6335662;28;20294;-76
2022/02/25 06:55:37;;;;;;;4.77;2.40;;;1.80;99.90;;;;;;6336818;28;20270;-76
2022/02/25 06:58:43;;;;;;;5.83;2.60;;;1.80;99.90;;;;;;6335509;28;20493;-76
2022/02/25 07:01:49;;;;;;;7.90;2.50;;;1.80;99.90;;;;;;6336424;28;20272;-76
2022/02/25 07:04:55;;;;;;;6.17;2.50;;;1.80;99.90;;;;;;6335036;28;20274;-76
2022/02/25 07:08:01;;;;;;;4.00;2.30;;;1.90;99.90;;;;;;6335208;28;20295;-76
2022/02/25 07:11:07;;;;;;;2.83;2.33;;;1.90;99.90;;;;;;6335221;28;20274;-75
2022/02/25 07:14:14;;;;;;;6.43;2.07;;;1.80;99.90;;;;;;6335570;28;20295;-77
2022/02/25 07:17:19;;;;;;;6.53;2.47;;;1.90;99.90;;;;;;6335212;28;20622;-76
2022/02/25 07:20:26;;;;;;;7.03;2.50;;;1.80;99.90;;;;;;6335522;28;20589;-76
2022/02/25 07:23:32;;;;;;;11.20;2.60;;;1.90;99.90;;;;;;6336978;28;20293;-75
2022/02/25 07:26:38;;;;;;;7.20;2.37;;;1.90;99.90;;;;;;6340671;28;20265;-76
2022/02/25 07:29:43;;;;;;;6.13;2.27;;;1.90;99.90;;;;;;6340275;28;20311;-76
2022/02/25 07:32:50;;;;;;;6.37;2.30;;;1.90;99.90;;;;;;6340180;28;20325;-76
2022/02/25 07:35:57;;;;;;;5.37;2.23;;;1.90;99.90;;;;;;6339966;28;20266;-76
2022/02/25 07:39:02;;;;;;;6.47;2.33;;;1.90;99.90;;;;;;6340366;28;20301;-76
2022/02/25 07:42:08;;;;;;;7.83;2.27;;;1.90;99.90;;;;;;6340264;28;20270;-76
2022/02/25 07:45:14;;;;;;;6.23;2.00;;;1.90;99.90;;;;;;6339984;28;20574;-77
2022/02/25 07:48:21;;;;;;;6.23;1.93;;;1.90;99.90;;;;;;6340282;28;20453;-76
2022/02/25 07:51:28;;;;;;;3.80;2.20;;;1.90;99.90;;;;;;6340470;28;20268;-76
2022/02/25 07:54:33;;;;;;;4.00;2.30;;;2.00;99.90;;;;;;6339343;28;20307;-76
2022/02/25 07:57:39;;;;;;;3.90;2.10;;;2.00;99.90;;;;;;6339623;28;20354;-76
2022/02/25 08:01:01;;;;;;;6.57;2.47;;;2.00;99.90;;;;;;6340279;28;20289;-77
2022/02/25 08:04:08;;;;;;;4.47;1.90;;;2.00;99.90;;;;;;6339404;28;20458;-76
2022/02/25 08:07:16;;;;;;;7.20;2.17;;;2.00;99.90;;;;;;6338576;28;20590;-77
2022/02/25 08:10:21;;;;;;;6.53;2.17;;;2.10;99.90;;;;;;6339283;28;20279;-76
2022/02/25 08:13:27;;;;;;;7.87;2.23;;;2.10;99.90;;;;;;6339266;28;20297;-77
2022/02/25 08:16:32;;;;;;;8.67;2.17;;;2.10;99.90;;;;;;6339532;28;20272;-76
2022/02/25 08:19:38;;;;;;;7.43;2.10;;;2.00;99.90;;;;;;6338882;28;20589;-76
2022/02/25 08:22:44;;;;;;;9.47;2.40;;;2.00;99.90;;;;;;6338809;28;20290;-76
2022/02/25 08:25:50;;;;;;;2.00;1.87;;;2.10;99.90;;;;;;6339724;28;20273;-76
2022/02/25 08:28:56;;;;;;;7.00;2.63;;;2.10;99.90;;;;;;6338631;28;20293;-76
2022/02/25 08:32:01;;;;;;;9.07;2.40;;;2.10;99.90;;;;;;6338003;28;20275;-76
2022/02/25 08:35:08;;;;;;;2.53;1.83;;;2.20;99.90;;;;;;6338595;28;20427;-77
2022/02/25 08:38:17;;;;;;;5.90;2.13;;;2.20;99.90;;;;;;6338533;28;20311;-76
2022/02/25 08:41:23;;;;;;;7.13;2.37;;;2.10;99.90;;;;;;6338722;28;20470;-77
2022/02/25 08:44:28;;;;;;;3.63;1.80;;;2.10;99.90;;;;;;6320121;28;20293;-77
2022/02/25 08:47:33;;;;;;;6.30;1.77;;;2.20;99.90;;;;;;6338050;28;20292;-77
2022/02/25 08:50:40;;;;;;;4.37;1.90;;;2.20;99.90;;;;;;6339210;28;20276;-77
2022/02/25 08:53:46;;;;;;;8.10;1.97;;;2.10;99.90;;;;;;6337656;28;20294;-77
2022/02/25 08:56:52;;;;;;;5.37;2.00;;;2.20;99.90;;;;;;6338568;28;20421;-77
2022/02/25 08:59:57;;;;;;;5.87;1.97;;;2.20;99.90;;;;;;6337028;28;20321;-77
2022/02/25 09:03:02;;;;;;;6.30;1.90;;;2.30;99.90;;;;;;6337337;28;20466;-77
2022/02/25 09:06:08;;;;;;;5.33;1.90;;;2.30;99.90;;;;;;6337982;28;20271;-78
2022/02/25 09:09:15;;;;;;;3.97;1.77;;;2.20;99.90;;;;;;6338150;28;20289;-77
2022/02/25 09:12:21;;;;;;;7.67;2.00;;;2.30;99.90;;;;;;6337140;28;20574;-77
2022/02/25 09:15:28;;;;;;;4.53;2.17;;;2.30;99.90;;;;;;6320327;28;20273;-77
2022/02/25 09:18:33;;;;;;;5.73;2.30;;;2.40;99.90;;;;;;6336143;28;20294;-77
2022/02/25 09:21:38;;;;;;;6.33;2.17;;;2.30;99.90;;;;;;6338170;28;20481;-77
2022/02/25 09:24:45;;;;;;;4.63;2.33;;;2.30;99.90;;;;;;6337017;28;20292;-77
2022/02/25 09:27:50;;;;;;;4.83;2.00;;;2.30;99.90;;;;;;6336930;28;20474;-76
2022/02/25 09:30:56;;;;;;;3.87;2.03;;;2.30;99.90;;;;;;6337432;28;20277;-77
2022/02/25 09:34:01;;;;;;;3.80;2.03;;;2.30;99.90;;;;;;6337308;28;20295;-77
2022/02/25 09:37:07;;;;;;;4.03;1.90;;;2.30;99.90;;;;;;6337615;28;20433;-77
2022/02/25 09:40:18;;;;;;;8.17;2.40;;;2.30;99.90;;;;;;6338038;28;20366;-77
2022/02/25 09:43:24;;;;;;;4.97;2.10;;;2.10;99.90;;;;;;6337369;28;20330;-77
2022/02/25 09:46:30;;;;;;;3.20;2.13;;;2.10;99.90;;;;;;6337025;28;20275;-77
2022/02/25 09:49:35;;;;;;;8.70;2.57;;;2.10;99.90;;;;;;6336366;28;20305;-77
2022/02/25 09:52:42;;;;;;;3.47;2.30;;;2.10;99.90;;;;;;6337344;28;20292;-77
2022/02/25 09:55:49;;;;;;;3.77;1.93;;;2.10;99.90;;;;;;6338037;28;20265;-77
2022/02/25 09:58:54;;;;;;;2.83;2.10;;;2.10;99.90;;;;;;6337267;28;20308;-77
2022/02/25 10:02:03;;;;;;;6.43;2.10;;;2.10;99.90;;;;;;6336910;28;20582;-77
2022/02/25 10:05:12;;;;;;;3.87;2.20;;;2.10;99.90;;;;;;6337289;28;20259;-77
2022/02/25 10:08:20;;;;;;;3.07;1.50;;;2.10;99.90;;;;;;6336487;28;20594;-76
2022/02/25 10:11:28;;;;;;;6.63;2.10;;;2.20;99.90;;;;;;6337839;28;20265;-81
2022/02/25 10:14:37;;;;;;;8.37;2.30;;;2.20;99.90;;;;;;6338398;28;20302;-81
2022/02/25 10:17:42;;;;;;;5.23;2.47;;;2.20;99.90;;;;;;6338285;28;20287;-80
2022/02/25 10:20:49;;;;;;;6.63;1.93;;;2.20;99.90;;;;;;6337950;28;20564;-79
2022/02/25 10:23:54;;;;;;;5.13;2.10;;;2.20;99.90;;;;;;6337826;28;20300;-79
2022/02/25 10:27:01;;;;;;;6.47;2.00;;;2.30;99.90;;;;;;6338751;28;20269;-80
2022/02/25 10:30:10;;;;;;;6.63;2.07;;;2.20;99.90;;;;;;6338308;28;20563;-78
2022/02/25 10:33:19;;;;;;;5.37;2.43;;;2.30;99.90;;;;;;6336934;28;20298;-79
2022/02/25 10:36:29;;;;;;;6.47;1.80;;;2.30;99.90;;;;;;6338611;28;20284;-78
2022/02/25 10:39:36;;;;;;;5.10;2.00;;;2.30;99.90;;;;;;6337861;28;20297;-79
2022/02/25 10:42:44;;;;;;;9.30;1.90;;;2.30;99.90;;;;;;6337454;28;20471;-78
2022/02/25 10:45:52;;;;;;;2.53;1.60;;;2.40;99.90;;;;;;6338637;28;20441;-79
2022/02/25 10:49:06;;;;;;;5.33;2.03;;;2.30;99.90;;;;;;6336705;28;20328;-78
2022/02/25 10:52:25;;;;;;;2.83;1.63;;;2.30;99.90;;;;;;6337086;28;20261;-78
2022/02/25 10:55:30;;;;;;;5.77;1.80;;;2.40;99.90;;;;;;6336409;28;20272;-77
2022/02/25 10:58:42;;;;;;;6.87;2.23;;;2.50;99.90;;;;;;6340485;28;20301;-78
2022/02/25 11:01:51;;;;;;;4.70;1.70;;;2.50;99.90;;;;;;6341513;28;20292;-77
2022/02/25 11:05:11;;;;;;;4.73;1.80;;;2.50;99.90;;;;;;6342286;28;20274;-79
2022/02/25 11:08:17;;;;;;;7.47;2.03;;;2.60;99.90;;;;;;6341112;28;20295;-77
2022/02/25 11:11:23;;;;;;;6.60;2.00;;;2.70;99.90;;;;;;6341649;28;20289;-77
2022/02/25 11:14:30;;;;;;;2.43;1.60;;;2.70;99.90;;;;;;6340159;28;20294;-76
2022/02/25 11:17:36;;;;;;;3.63;1.57;;;2.80;99.90;;;;;;6340837;28;20479;-76
2022/02/25 11:20:51;;;;;;;7.03;1.90;;;2.80;99.90;;;;;;6340691;28;20295;-76
2022/02/25 11:23:57;;;;;;;5.00;1.40;;;2.90;99.90;;;;;;6340809;28;20298;-76
2022/02/25 11:27:03;;;;;;;4.43;1.63;;;2.90;99.90;;;;;;6339712;28;20561;-77
2022/02/25 11:30:15;;;;;;;2.60;1.90;;;2.90;99.90;;;;;;6340421;28;20274;-77
2022/02/25 11:33:22;;;;;;;5.33;1.93;;;2.90;99.90;;;;;;6340319;28;20332;-77
2022/02/25 11:36:43;;;;;;;8.23;2.13;;;2.90;99.90;;;;;;6340648;28;20269;-77
2022/02/25 11:39:51;;;;;;;6.10;1.70;;;2.90;99.90;;;;;;6338589;28;20455;-76
2022/02/25 11:43:08;;;;;;;3.30;1.40;;;2.90;99.90;;;;;;6340012;28;20318;-77
2022/02/25 11:46:22;;;;;;;9.13;1.80;;;2.90;99.90;;;;;;6340813;28;20283;-77
2022/02/25 11:49:30;;;;;;;5.50;2.03;;;3.00;99.90;;;;;;6340107;28;20298;-78
2022/02/25 11:52:35;;;;;;;5.50;2.00;;;3.10;99.90;;;;;;6339826;28;20310;-77
2022/02/25 11:55:40;;;;;;;3.50;1.80;;;3.10;99.90;;;;;;6340621;28;20270;-78
2022/02/25 11:58:49;;;;;;;3.50;1.50;;;3.20;99.90;;;;;;6340015;28;20292;-77
2022/02/25 12:02:05;;;;;;;10.33;2.07;;;3.20;99.90;;;;;;6339345;28;20272;-78
2022/02/25 12:05:17;;;;;;;5.90;1.73;;;3.30;99.90;;;;;;6339026;28;20291;-78
2022/02/25 12:08:31;;;;;;;4.03;1.60;;;3.30;99.90;;;;;;6338357;28;20300;-77
2022/02/25 12:11:36;;;;;;;11.53;2.57;;;3.40;99.90;;;;;;6339651;28;20270;-78
2022/02/25 12:15:00;;;;;;;7.07;1.83;;;3.40;99.90;;;;;;6342412;28;20535;-77
2022/02/25 12:18:09;;;;;;;4.00;1.67;;;3.40;99.90;;;;;;6340592;28;20290;-78
2022/02/25 12:21:45;;;;;;;3.23;1.70;;;3.50;99.90;;;;;;6340301;28;20296;-78
2022/02/25 12:24:54;;;;;;;7.13;1.60;;;3.40;99.90;;;;;;6340127;28;20298;-78
2022/02/25 12:28:04;;;;;;;4.67;1.70;;;3.60;99.90;;;;;;6339272;28;20297;-79
2022/02/25 12:31:15;;;;;;;5.83;1.70;;;3.50;99.90;;;;;;6321346;28;20268;-77
2022/02/25 12:34:25;;;;;;;6.23;1.50;;;3.60;99.90;;;;;;6338153;28;20465;-77
2022/02/25 12:37:31;;;;;;;4.67;1.63;;;3.60;99.90;;;;;;6338401;28;20292;-77
2022/02/25 12:40:36;;;;;;;7.57;2.13;;;3.60;99.90;;;;;;6338860;28;20266;-77
2022/02/25 12:43:48;;;;;;;3.70;1.60;;;3.70;99.90;;;;;;6339126;28;20300;-78
2022/02/25 12:46:56;;;;;;;3.60;1.60;;;3.80;99.90;;;;;;6338924;28;20564;-78
2022/02/25 12:50:07;;;;;;;3.13;1.83;;;3.90;99.90;;;;;;6337609;28;20451;-77
2022/02/25 12:53:15;;;;;;;9.30;2.23;;;4.00;99.90;;;;;;6338378;28;20304;-78
2022/02/25 12:56:22;;;;;;;7.23;1.60;;;4.10;99.90;;;;;;6339434;28;20272;-78
2022/02/25 12:59:36;;;;;;;4.33;1.77;;;4.10;99.90;;;;;;6339626;28;20296;-77
2022/02/25 13:02:53;;;;;;;4.53;1.73;;;4.00;99.90;;;;;;6339986;28;20288;-78
2022/02/25 13:06:00;;;;;;;2.67;1.80;;;4.10;99.90;;;;;;6339896;28;20548;-77
2022/02/25 13:09:09;;;;;;;4.60;1.60;;;4.10;99.90;;;;;;6338724;28;20572;-78
2022/02/25 13:12:20;;;;;;;5.53;1.70;;;4.00;99.90;;;;;;6338831;28;20583;-77
2022/02/25 13:15:27;;;;;;;4.37;1.67;;;4.00;99.90;;;;;;6339122;28;20264;-76
2022/02/25 13:18:33;;;;;;;3.30;1.67;;;4.00;99.90;;;;;;6337902;28;20291;-77
2022/02/25 13:21:40;;;;;;;4.57;1.80;;;4.00;99.90;;;;;;6336694;28;20314;-77
2022/02/25 13:24:59;;;;;;;5.70;1.90;;;3.90;99.90;;;;;;6337799;28;20633;-78
2022/02/25 13:28:04;;;;;;;5.30;2.27;;;3.90;99.90;;;;;;6340381;28;20296;-78
2022/02/25 13:31:12;;;;;;;8.90;2.17;;;4.00;99.90;;;;;;6341194;28;20438;-78
2022/02/25 13:34:18;;;;;;;7.27;1.90;;;4.00;99.90;;;;;;6338549;28;20299;-76
2022/02/25 13:37:25;;;;;;;3.23;1.43;;;4.00;99.90;;;;;;6337785;28;20292;-76
2022/02/25 13:40:38;;;;;;;2.73;1.57;;;4.00;99.90;;;;;;6336959;28;20290;-75
2022/02/25 13:44:12;;;;;;;7.73;1.90;;;4.00;99.90;;;;;;6337736;28;20300;-76
2022/02/25 13:54:09;;;;;;;3.03;1.63;;;4.00;99.90;;;;;;6337862;28;20303;-77
2022/02/25 13:57:15;;;;;;;8.03;1.93;;;4.00;99.90;;;;;;6336763;28;20464;-77
2022/02/25 14:00:25;;;;;;;5.83;1.67;;;4.00;99.90;;;;;;6337910;28;20273;-78
2022/02/25 14:03:43;;;;;;;3.77;1.40;;;4.00;99.90;;;;;;6337990;28;20300;-77
2022/02/25 14:06:56;;;;;;;2.47;1.70;;;4.00;99.90;;;;;;6337091;28;20268;-76
2022/02/25 14:10:07;;;;;;;3.07;1.50;;;4.00;99.90;;;;;;6337221;28;20280;-78
2022/02/25 14:13:15;;;;;;;1.77;1.53;;;4.10;99.90;;;;;;6337639;28;20301;-78
2022/02/25 14:16:25;;;;;;;5.13;1.80;;;4.00;99.90;;;;;;6336979;28;20273;-76
2022/02/25 14:19:36;;;;;;;3.93;1.60;;;4.10;99.90;;;;;;6335913;28;20309;-76
2022/02/25 14:22:43;;;;;;;4.93;1.60;;;4.00;99.90;;;;;;6336800;28;20305;-76
2022/02/25 14:25:55;;;;;;;5.27;1.33;;;4.00;99.90;;;;;;6336290;28;20281;-76
2022/02/25 14:29:16;;;;;;;1.80;1.60;;;4.00;99.90;;;;;;6336476;28;20300;-76
2022/02/25 14:32:21;;;;;;;5.73;1.73;;;4.00;99.90;;;;;;6335318;28;20292;-75
2022/02/25 14:35:28;;;;;;;3.57;1.47;;;4.00;99.90;;;;;;6336236;28;20288;-75
2022/02/25 14:38:37;;;;;;;4.43;1.80;;;3.90;99.90;;;;;;6335423;28;20597;-75
2022/02/25 14:41:43;;;;;;;4.73;1.67;;;3.90;99.90;;;;;;6336008;28;20264;-75
2022/02/25 14:44:50;;;;;;;3.70;1.40;;;4.00;99.90;;;;;;6336428;28;20296;-77
2022/02/25 14:47:56;;;;;;;2.20;1.57;;;4.00;99.90;;;;;;6335811;28;20296;-74
2022/02/25 14:51:02;;;;;;;4.57;1.60;;;3.90;99.90;;;;;;6336284;28;20273;-75
2022/02/25 14:54:09;;;;;;;2.50;1.60;;;3.90;99.90;;;;;;6335487;28;20324;-75
2022/02/25 14:57:17;;;;;;;5.57;1.50;;;3.90;99.90;;;;;;6336749;28;20307;-78
2022/02/25 15:00:24;;;;;;;1.73;1.27;;;3.90;99.90;;;;;;6338398;28;20277;-79
2022/02/25 15:03:30;;;;;;;1.60;1.20;;;3.80;99.90;;;;;;6335185;28;20584;-76
2022/02/25 15:06:36;;;;;;;4.70;1.93;;;3.80;99.90;;;;;;6335481;28;20595;-76
2022/02/25 15:09:42;;;;;;;1.80;1.40;;;3.80;99.90;;;;;;6335886;28;20299;-78
2022/02/25 15:12:52;;;;;;;3.50;1.50;;;3.70;99.90;;;;;;6335827;28;20305;-76
2022/02/25 15:15:58;;;;;;;1.40;1.30;;;3.70;99.90;;;;;;6336765;28;20276;-77
2022/02/25 15:19:08;;;;;;;4.20;1.50;;;3.60;99.90;;;;;;6335655;28;20316;-76
2022/02/25 15:22:16;;;;;;;4.13;1.33;;;3.60;99.90;;;;;;6311186;28;20294;-76
2022/02/25 15:25:22;;;;;;;1.97;1.37;;;3.60;99.90;;;;;;6311086;28;20296;-76
2022/02/25 15:28:29;;;;;;;2.40;1.30;;;3.60;99.90;;;;;;6310593;28;20305;-77
2022/02/25 15:31:35;;;;;;;4.07;1.67;;;3.50;99.90;;;;;;6312576;28;20274;-80
2022/02/25 15:34:41;;;;;;;4.20;1.30;;;3.40;99.90;;;;;;6311269;28;20309;-81
2022/02/25 15:37:46;;;;;;;4.63;1.50;;;3.40;99.90;;;;;;6313392;28;20290;-82
2022/02/25 15:40:52;;;;;;;2.87;1.17;;;3.30;99.90;;;;;;6314514;28;20272;-79
2022/02/25 15:44:00;;;;;;;6.07;1.37;;;3.40;99.90;;;;;;6312151;28;20298;-81
2022/02/25 15:47:09;;;;;;;1.20;1.20;;;3.40;99.90;;;;;;6331504;28;20479;-80
2022/02/25 15:50:14;;;;;;;2.43;1.23;;;3.30;99.90;;;;;;6316867;28;20273;-80
2022/02/25 15:53:19;;;;;;;1.77;1.40;;;3.20;99.90;;;;;;6316602;28;20305;-80
2022/02/25 15:56:25;;;;;;;3.87;1.47;;;3.20;99.90;;;;;;6317267;28;20281;-80
2022/02/25 15:59:32;;;;;;;2.80;1.30;;;3.10;99.90;;;;;;6316828;28;20326;-78
2022/02/25 16:02:38;;;;;;;1.13;1.13;;;3.00;99.90;;;;;;6297361;28;20293;-78
2022/02/25 16:05:43;;;;;;;1.50;1.40;;;3.00;99.90;;;;;;6314203;28;20290;-78
2022/02/25 16:08:51;;;;;;;2.37;1.40;;;2.90;99.90;;;;;;6314969;28;20294;-78
2022/02/25 16:12:00;;;;;;;3.13;1.40;;;2.90;99.90;;;;;;6314677;28;20279;-76
2022/02/25 16:15:09;;;;;;;3.33;1.40;;;2.80;99.90;;;;;;6314568;28;20269;-77
2022/02/25 16:18:15;;;;;;;1.80;1.30;;;2.80;99.90;;;;;;6314530;28;20296;-76
2022/02/25 16:21:21;;;;;;;1.27;1.20;;;2.70;99.90;;;;;;6333626;28;20297;-78
2022/02/25 16:24:27;;;;;;;3.40;1.47;;;2.60;99.90;;;;;;6340802;28;20292;-77
2022/02/25 16:27:33;;;;;;;3.27;1.50;;;2.70;99.90;;;;;;6339702;28;20294;-78
2022/02/25 16:30:40;;;;;;;4.47;1.40;;;2.60;99.90;;;;;;6339401;28;20274;-77
2022/02/25 16:33:46;;;;;;;3.07;1.17;;;2.70;99.90;;;;;;6338294;28;20314;-77
2022/02/25 16:36:52;;;;;;;5.47;1.60;;;2.60;99.90;;;;;;6339392;28;20273;-78
2022/02/25 16:39:58;;;;;;;1.30;1.20;;;2.70;99.90;;;;;;6339170;28;20275;-77
2022/02/25 16:43:04;;;;;;;3.37;1.73;;;2.50;99.90;;;;;;6338723;28;20469;-78
2022/02/25 16:46:12;;;;;;;1.70;1.60;;;2.50;99.90;;;;;;6339676;28;20299;-76